Amherst, Virginia
Current Conditions -  °F | °C
As of 5:54 AM on Saturday 01 Nov 2014 (Local Time) from KLYH Reporting Station
Overcast Overcast  
Wind Chill: 43°   Ceiling: 3800
Heat Index: 43°   Visibility: 8mi
Dew Point: 42°   Wind: 3mph
Humidity: 97%   Direction: 330°NNW
Pressure: 29.79"   Gusts: NA
Location:  37.59°N, 79.05°W
Report Text: KLYH 010954Z AUTO 33003KT 8SM BKN038 OVC065 06/06 A2979 RMK AO2 RAE17 SLP087 P0000 T00610056 $
Loading
Personal Weather Stations






























Interactive Weather Map
Tropical Storm Tracking
New forecast layout! Learn more

10-Day Weather Forecast

Advertisements
Track Severe Weather on mobile